Time;durP1;ratioP1;P1;durP2;ratioP2;P2;SDS_P1;SDS_P2;PMS_P1;PMS_P2;Temp;Humidity;BMP_temperature;BMP_pressure;BME280_temperature;BME280_humidity;BME280_pressure;Samples;Min_cycle;Max_cycle;Signal;HPM_P1;HPM_P2
2021/12/18 00:01:35;;;;;;;0.50;0.10;;;6.90;1.00;;;;;;5044423;28;20480;-69
2021/12/18 00:04:04;;;;;;;0.50;0.10;;;6.90;1.00;;;;;;5050058;28;20448;-69
2021/12/18 00:06:32;;;;;;;0.50;0.20;;;6.90;1.00;;;;;;5032395;28;20473;-68
2021/12/18 00:09:01;;;;;;;0.60;0.30;;;6.80;1.00;;;;;;5033666;28;21011;-69
2021/12/18 00:11:30;;;;;;;1.13;1.03;;;6.80;1.00;;;;;;5033460;28;20466;-67
2021/12/18 00:13:58;;;;;;;1.33;1.23;;;6.80;1.00;;;;;;5034666;28;20454;-69
2021/12/18 00:16:27;;;;;;;0.50;0.10;;;6.80;1.00;;;;;;5034627;28;20456;-67
2021/12/18 00:18:57;;;;;;;0.50;0.10;;;6.80;1.00;;;;;;5034675;28;20461;-67
2021/12/18 00:21:25;;;;;;;0.50;0.10;;;6.70;1.00;;;;;;5034826;28;20463;-68
2021/12/18 00:23:54;;;;;;;1.50;1.40;;;6.70;1.00;;;;;;5034900;28;20437;-67
2021/12/18 00:26:22;;;;;;;0.60;0.40;;;6.70;1.00;;;;;;5034866;28;20583;-67
2021/12/18 00:28:51;;;;;;;1.27;1.27;;;6.70;1.00;;;;;;5034742;28;20445;-67
2021/12/18 00:31:19;;;;;;;0.60;0.50;;;6.70;1.00;;;;;;5035037;28;20487;-66
2021/12/18 00:33:47;;;;;;;0.50;0.10;;;6.70;1.00;;;;;;5034397;28;20438;-67
2021/12/18 00:36:15;;;;;;;0.50;0.10;;;6.70;1.00;;;;;;5033848;28;20824;-69
2021/12/18 00:38:43;;;;;;;0.50;0.10;;;6.70;1.00;;;;;;5034310;28;20820;-69
2021/12/18 00:41:15;;;;;;;0.50;0.10;;;6.70;1.00;;;;;;5034545;28;20476;-68
2021/12/18 00:46:27;;;;;;;0.50;0.10;;;6.60;1.00;;;;;;5021902;28;20577;-67
2021/12/18 00:48:55;;;;;;;0.50;0.10;;;6.60;1.00;;;;;;5034410;28;20449;-67
2021/12/18 00:51:24;;;;;;;0.60;0.10;;;;;;;;;;5034086;28;21034;-67
2021/12/18 00:53:52;;;;;;;0.70;0.33;;;;;;;;;;5034083;28;20936;-69
2021/12/18 00:56:22;;;;;;;0.50;0.10;;;6.60;1.00;;;;;;5034093;28;20502;-68
2021/12/18 00:58:50;;;;;;;0.50;0.10;;;6.60;1.00;;;;;;5033865;28;20956;-68
2021/12/18 01:01:19;;;;;;;0.50;0.10;;;6.50;1.00;;;;;;5036448;28;20496;-67
2021/12/18 01:03:51;;;;;;;0.50;0.10;;;6.50;1.00;;;;;;5034700;28;20450;-67
2021/12/18 01:06:21;;;;;;;1.40;1.30;;;6.50;1.00;;;;;;5033645;28;20992;-67
2021/12/18 01:08:52;;;;;;;0.50;0.10;;;6.50;1.00;;;;;;5034177;28;20453;-67
2021/12/18 01:11:32;;;;;;;0.50;0.10;;;6.50;1.00;;;;;;5033637;28;20469;-67
2021/12/18 01:14:20;;;;;;;0.50;0.20;;;6.50;1.00;;;;;;5034108;28;20449;-67
2021/12/18 01:16:59;;;;;;;0.50;0.20;;;6.50;1.00;;;;;;5034065;28;20536;-67
2021/12/18 01:24:59;;;;;;;0.50;0.10;;;6.50;1.00;;;;;;5033578;28;20449;-66
2021/12/18 01:27:26;;;;;;;0.50;0.17;;;6.50;1.00;;;;;;5033968;28;20488;-67
2021/12/18 01:29:54;;;;;;;0.60;0.10;;;6.50;1.00;;;;;;5033661;28;20833;-68
2021/12/18 01:32:23;;;;;;;0.50;0.10;;;6.40;1.00;;;;;;5033516;28;20477;-68
2021/12/18 01:34:52;;;;;;;0.50;0.20;;;6.40;1.00;;;;;;5034191;28;20448;-67
2021/12/18 01:37:20;;;;;;;1.17;1.07;;;6.40;1.00;;;;;;5033949;28;20464;-67
2021/12/18 01:39:51;;;;;;;3.80;0.93;;;6.40;1.00;;;;;;5033894;28;20472;-66
2021/12/18 01:43:05;;;;;;;0.60;0.37;;;6.30;1.00;;;;;;5033592;28;20842;-66
2021/12/18 01:45:29;;;;;;;1.47;1.20;;;6.30;1.00;;;;;;5032567;28;20955;-67
2021/12/18 01:53:30;;;;;;;1.43;0.73;;;6.10;1.00;;;;;;5033757;28;20443;-68
2021/12/18 01:55:58;;;;;;;0.50;0.10;;;6.10;1.00;;;;;;5034226;28;20919;-68
2021/12/18 01:58:27;;;;;;;1.73;1.60;;;6.10;1.00;;;;;;5033564;28;20460;-67
2021/12/18 02:00:56;;;;;;;0.90;0.90;;;6.10;1.00;;;;;;5033510;28;21005;-67
2021/12/18 02:03:25;;;;;;;2.63;2.43;;;6.10;1.00;;;;;;5033758;28;20938;-66
2021/12/18 02:05:55;;;;;;;1.90;1.30;;;6.10;1.00;;;;;;5032918;28;21304;-67
2021/12/18 02:08:24;;;;;;;0.50;0.17;;;6.10;1.00;;;;;;5032250;28;20484;-67
2021/12/18 02:10:58;;;;;;;0.50;0.10;;;6.00;1.00;;;;;;5033028;28;20464;-67
2021/12/18 02:13:39;;;;;;;1.20;1.03;;;6.00;1.00;;;;;;5032208;28;20947;-67
2021/12/18 02:21:39;;;;;;;1.03;1.03;;;6.00;1.00;;;;;;5032716;28;20465;-68
2021/12/18 02:24:07;;;;;;;1.33;1.23;;;6.00;1.00;;;;;;5032370;28;20441;-68
2021/12/18 02:26:35;;;;;;;5.23;0.87;;;6.00;1.00;;;;;;5032745;28;20448;-67
2021/12/18 02:29:05;;;;;;;0.77;0.60;;;6.00;1.00;;;;;;5032878;28;20443;-68
2021/12/18 02:31:33;;;;;;;1.13;0.63;;;6.00;1.00;;;;;;5032543;28;20563;-66
2021/12/18 02:34:02;;;;;;;1.47;0.77;;;6.00;1.00;;;;;;5032505;28;20436;-67
2021/12/18 02:36:30;;;;;;;0.50;0.10;;;;;;;;;;5031796;28;20453;-66
2021/12/18 02:39:18;;;;;;;5.03;3.63;;;6.00;1.00;;;;;;5031968;28;20873;-68
2021/12/18 02:42:06;;;;;;;0.83;0.83;;;6.00;1.00;;;;;;5032004;28;20473;-67
2021/12/18 02:44:35;;;;;;;1.60;1.50;;;5.90;1.00;;;;;;5031876;28;20886;-67
2021/12/18 02:47:03;;;;;;;2.13;2.03;;;5.90;1.00;;;;;;5031986;28;20448;-67
2021/12/18 02:49:31;;;;;;;0.50;0.10;;;5.90;1.00;;;;;;5031852;28;20451;-67
2021/12/18 02:51:59;;;;;;;2.60;0.70;;;;;;;;;;5032028;28;20537;-67
2021/12/18 02:54:29;;;;;;;0.90;0.73;;;5.80;1.00;;;;;;5031831;28;20456;-68
2021/12/18 02:56:57;;;;;;;0.50;0.10;;;5.90;1.00;;;;;;5031564;28;20528;-67
2021/12/18 02:59:25;;;;;;;1.90;1.43;;;5.90;1.00;;;;;;5031933;28;20819;-66
2021/12/18 03:01:53;;;;;;;2.27;0.77;;;5.90;1.00;;;;;;5032447;28;20548;-67
2021/12/18 03:04:25;;;;;;;0.50;0.10;;;5.90;1.00;;;;;;5033256;28;20456;-68
2021/12/18 03:06:58;;;;;;;3.50;1.60;;;6.00;1.00;;;;;;5034472;28;20479;-68
2021/12/18 03:09:52;;;;;;;4.30;4.10;;;6.00;1.00;;;;;;5033503;28;20441;-68
2021/12/18 03:23:33;;;;;;;0.93;0.93;;;6.10;1.00;;;;;;5033002;28;20538;-68
2021/12/18 03:26:01;;;;;;;0.83;0.83;;;6.00;1.00;;;;;;5033657;28;20433;-68
2021/12/18 03:28:31;;;;;;;1.13;0.80;;;6.00;1.00;;;;;;5034213;28;20566;-66
2021/12/18 03:30:59;;;;;;;0.50;0.10;;;6.00;1.00;;;;;;5033836;28;20475;-67
2021/12/18 03:33:28;;;;;;;1.80;1.70;;;6.00;1.00;;;;;;5032154;28;20444;-66
2021/12/18 03:35:56;;;;;;;6.50;2.93;;;6.00;1.00;;;;;;5031640;28;20451;-68
2021/12/18 03:38:25;;;;;;;0.50;0.10;;;;;;;;;;5031423;28;20805;-67
2021/12/18 03:40:52;;;;;;;9.53;4.43;;;6.00;1.00;;;;;;5031482;28;20480;-67
2021/12/18 03:43:20;;;;;;;3.90;2.37;;;6.00;1.00;;;;;;5031582;28;20448;-67
2021/12/18 03:45:50;;;;;;;0.83;0.70;;;5.90;1.00;;;;;;5031142;28;20440;-69
2021/12/18 03:48:17;;;;;;;1.17;0.80;;;5.90;1.00;;;;;;5031199;28;20485;-67
2021/12/18 03:50:46;;;;;;;1.63;0.70;;;5.90;1.00;;;;;;5031549;28;20477;-68
2021/12/18 03:53:14;;;;;;;0.70;0.30;;;5.90;1.00;;;;;;5031053;28;20459;-66
2021/12/18 03:55:42;;;;;;;1.63;0.47;;;5.90;1.00;;;;;;5031055;28;20799;-67
2021/12/18 03:58:10;;;;;;;0.50;0.10;;;6.00;1.00;;;;;;5031317;28;20437;-68
2021/12/18 04:00:38;;;;;;;0.50;0.10;;;5.90;1.00;;;;;;5031673;28;20790;-68
2021/12/18 04:03:07;;;;;;;0.83;0.40;;;6.00;1.00;;;;;;5031519;28;20441;-68
2021/12/18 04:05:36;;;;;;;1.60;1.50;;;6.00;1.00;;;;;;5031267;28;20540;-67
2021/12/18 04:08:09;;;;;;;0.50;0.10;;;6.00;1.00;;;;;;5031117;28;20483;-69
2021/12/18 04:10:38;;;;;;;0.50;0.20;;;6.10;1.00;;;;;;5034404;28;20524;-68
2021/12/18 04:13:07;;;;;;;0.50;0.10;;;6.10;1.00;;;;;;5035238;28;20455;-67
2021/12/18 04:15:36;;;;;;;0.50;0.10;;;6.10;1.00;;;;;;5034880;28;20487;-69
2021/12/18 04:18:04;;;;;;;0.50;0.20;;;6.10;1.00;;;;;;5034903;28;20900;-68
2021/12/18 04:20:33;;;;;;;0.50;0.10;;;6.10;1.00;;;;;;5034664;28;20453;-67
2021/12/18 04:23:01;;;;;;;0.50;0.10;;;6.10;1.00;;;;;;5034751;28;20449;-68
2021/12/18 04:25:29;;;;;;;0.60;0.20;;;6.10;1.00;;;;;;5034441;28;20453;-67
2021/12/18 04:27:57;;;;;;;0.50;0.10;;;6.10;1.00;;;;;;5035285;28;20451;-68
2021/12/18 04:30:25;;;;;;;0.50;0.10;;;6.10;1.00;;;;;;5033766;28;20446;-66
2021/12/18 04:32:56;;;;;;;0.60;0.40;;;6.10;1.00;;;;;;5031916;28;20449;-67
2021/12/18 04:35:24;;;;;;;0.50;0.10;;;6.20;1.00;;;;;;5034088;28;20509;-68
2021/12/18 04:37:53;;;;;;;0.50;0.10;;;6.20;1.00;;;;;;5034374;28;20536;-68
2021/12/18 04:40:25;;;;;;;0.50;0.10;;;6.20;1.00;;;;;;5034314;28;20445;-68
2021/12/18 04:42:53;;;;;;;0.50;0.10;;;6.20;1.00;;;;;;5034606;28;20441;-67
2021/12/18 04:45:21;;;;;;;0.53;0.10;;;6.20;1.00;;;;;;5034019;28;20444;-67
2021/12/18 04:47:49;;;;;;;0.50;0.10;;;6.30;1.00;;;;;;5034597;28;20537;-68
2021/12/18 04:50:17;;;;;;;0.50;0.10;;;6.30;1.00;;;;;;5035531;28;20446;-67
2021/12/18 04:52:45;;;;;;;0.50;0.10;;;6.30;1.00;;;;;;5035028;28;20471;-68
2021/12/18 04:55:15;;;;;;;0.50;0.20;;;6.30;1.00;;;;;;5033792;28;20444;-67
2021/12/18 04:57:43;;;;;;;0.50;0.10;;;6.40;1.00;;;;;;5034144;28;20437;-67
2021/12/18 05:00:15;;;;;;;0.50;0.10;;;6.30;1.00;;;;;;5034224;28;20438;-66
2021/12/18 05:02:44;;;;;;;0.50;0.10;;;6.40;1.00;;;;;;5034476;28;20450;-66
2021/12/18 05:05:14;;;;;;;0.50;0.10;;;6.30;1.00;;;;;;5034341;28;20450;-65
2021/12/18 05:07:43;;;;;;;0.50;0.10;;;6.40;1.00;;;;;;5034347;28;20433;-66
2021/12/18 05:10:14;;;;;;;0.50;0.10;;;6.50;1.00;;;;;;5034497;28;20493;-66
2021/12/18 05:12:42;;;;;;;0.50;0.10;;;6.50;1.00;;;;;;5034050;28;20470;-67
2021/12/18 05:15:10;;;;;;;0.50;0.10;;;6.50;1.00;;;;;;5033978;28;20458;-66
2021/12/18 05:17:38;;;;;;;0.50;0.10;;;6.50;1.00;;;;;;5034108;28;20447;-67
2021/12/18 05:20:08;;;;;;;0.50;0.10;;;6.50;1.00;;;;;;5014482;28;20451;-65
2021/12/18 05:22:35;;;;;;;0.50;0.10;;;6.50;1.00;;;;;;5031146;28;20476;-66
2021/12/18 05:25:04;;;;;;;0.50;0.10;;;6.50;1.00;;;;;;5033686;28;20458;-66
2021/12/18 05:27:34;;;;;;;0.50;0.10;;;6.50;1.00;;;;;;5034107;28;20448;-67
2021/12/18 05:30:02;;;;;;;0.50;0.10;;;6.50;1.00;;;;;;5034185;28;20511;-65
2021/12/18 05:32:30;;;;;;;0.50;0.10;;;6.60;1.00;;;;;;5033676;28;20529;-67
2021/12/18 05:34:58;;;;;;;0.50;0.10;;;6.60;1.00;;;;;;5033694;28;20545;-65
2021/12/18 05:37:32;;;;;;;0.50;0.10;;;6.60;1.00;;;;;;5033884;28;20827;-65
2021/12/18 05:40:00;;;;;;;0.50;0.10;;;6.60;1.00;;;;;;5033841;28;20439;-66
2021/12/18 05:42:28;;;;;;;0.50;0.10;;;6.60;1.00;;;;;;5033620;28;20457;-64
2021/12/18 05:44:57;;;;;;;0.50;0.10;;;6.60;1.00;;;;;;5033926;28;20433;-65
2021/12/18 05:47:25;;;;;;;0.50;0.10;;;6.60;1.00;;;;;;5033776;28;20445;-68
2021/12/18 05:49:53;;;;;;;0.50;0.10;;;6.60;1.00;;;;;;5033418;28;20477;-67
2021/12/18 05:52:22;;;;;;;0.50;0.10;;;6.60;1.00;;;;;;5033401;28;20468;-66
2021/12/18 05:54:50;;;;;;;0.50;0.10;;;6.60;1.00;;;;;;5033142;28;20468;-66
2021/12/18 05:57:19;;;;;;;0.50;0.10;;;6.70;1.00;;;;;;5033290;28;20453;-67
2021/12/18 05:59:47;;;;;;;0.50;0.10;;;6.70;1.00;;;;;;5033111;28;20449;-66
2021/12/18 06:02:16;;;;;;;0.50;0.10;;;6.70;1.00;;;;;;5033279;28;20600;-65
2021/12/18 06:04:44;;;;;;;0.50;0.10;;;6.70;1.00;;;;;;5035778;28;20518;-65
2021/12/18 06:07:27;;;;;;;0.50;0.10;;;6.70;1.00;;;;;;5034105;28;20451;-67
2021/12/18 06:09:55;;;;;;;0.50;0.10;;;6.70;1.00;;;;;;5033765;28;20488;-66
2021/12/18 06:12:23;;;;;;;0.50;0.10;;;6.60;1.00;;;;;;5033134;28;20470;-66
2021/12/18 06:14:51;;;;;;;0.50;0.10;;;6.70;1.00;;;;;;5032873;28;20445;-67
2021/12/18 06:17:21;;;;;;;0.50;0.10;;;6.70;1.00;;;;;;5032877;28;20450;-65
2021/12/18 06:19:49;;;;;;;0.50;0.10;;;6.70;1.00;;;;;;5032760;28;20438;-66
2021/12/18 06:22:16;;;;;;;0.50;0.10;;;6.70;1.00;;;;;;5033135;28;20552;-65
2021/12/18 06:24:44;;;;;;;0.50;0.10;;;6.80;1.00;;;;;;5032537;28;20449;-65
2021/12/18 06:27:12;;;;;;;0.50;0.10;;;6.70;1.00;;;;;;5032838;28;20442;-66
2021/12/18 06:29:42;;;;;;;0.50;0.10;;;6.70;1.00;;;;;;5032816;28;20473;-67
2021/12/18 06:32:10;;;;;;;0.50;0.10;;;6.80;1.00;;;;;;5031801;28;20580;-67
2021/12/18 06:34:39;;;;;;;0.50;0.10;;;6.80;1.00;;;;;;5033091;28;20437;-65
2021/12/18 06:37:07;;;;;;;0.50;0.10;;;6.70;1.00;;;;;;5032644;28;20457;-66
2021/12/18 06:39:35;;;;;;;0.50;0.10;;;6.70;1.00;;;;;;5032598;28;20445;-66
2021/12/18 06:42:03;;;;;;;0.50;0.10;;;6.70;1.00;;;;;;5032686;28;20476;-65
2021/12/18 06:44:31;;;;;;;0.60;0.40;;;6.70;1.00;;;;;;5032167;28;20437;-66
2021/12/18 06:46:59;;;;;;;0.50;0.10;;;6.60;1.00;;;;;;5032513;28;20996;-67
2021/12/18 06:49:27;;;;;;;0.50;0.10;;;6.60;1.00;;;;;;5032784;28;20573;-64
2021/12/18 06:51:57;;;;;;;0.50;0.10;;;6.70;1.00;;;;;;5033521;28;20470;-66
2021/12/18 06:54:25;;;;;;;0.50;0.10;;;6.70;1.00;;;;;;5032487;28;20454;-66
2021/12/18 06:56:53;;;;;;;0.50;0.10;;;6.70;1.00;;;;;;5032244;28;20453;-67
2021/12/18 06:59:21;;;;;;;0.50;0.10;;;6.70;1.00;;;;;;5032029;28;20449;-68
2021/12/18 07:01:52;;;;;;;0.50;0.10;;;6.70;1.00;;;;;;5032234;28;20461;-66
2021/12/18 07:04:19;;;;;;;0.50;0.10;;;6.70;1.00;;;;;;5032129;28;20442;-66
2021/12/18 07:06:48;;;;;;;0.60;0.30;;;6.80;1.00;;;;;;5031929;28;20457;-67
2021/12/18 07:09:17;;;;;;;0.50;0.10;;;6.70;1.00;;;;;;5032097;28;20497;-67
2021/12/18 07:11:45;;;;;;;0.50;0.10;;;6.60;1.00;;;;;;5032717;28;20471;-66
2021/12/18 07:14:12;;;;;;;0.50;0.10;;;6.60;1.00;;;;;;5032038;28;20489;-64
2021/12/18 07:16:40;;;;;;;0.50;0.10;;;6.60;1.00;;;;;;5032538;28;20468;-64
2021/12/18 07:19:08;;;;;;;1.00;0.30;;;6.60;1.00;;;;;;5031942;28;20445;-66
2021/12/18 07:21:36;;;;;;;0.50;0.10;;;6.60;1.00;;;;;;5032741;28;20476;-68
2021/12/18 07:24:05;;;;;;;0.50;0.10;;;6.60;1.00;;;;;;5032254;28;20456;-71
2021/12/18 07:26:34;;;;;;;0.50;0.10;;;6.60;1.00;;;;;;5031855;28;20929;-65
2021/12/18 07:29:02;;;;;;;1.20;1.13;;;6.70;1.00;;;;;;5032058;28;20455;-67
2021/12/18 07:31:30;;;;;;;0.50;0.10;;;6.60;1.00;;;;;;5031678;28;20501;-69
2021/12/18 07:33:58;;;;;;;0.50;0.10;;;6.60;1.00;;;;;;5032435;28;20456;-70
2021/12/18 07:36:27;;;;;;;0.73;0.73;;;6.50;1.00;;;;;;5034660;28;20834;-67
2021/12/18 07:38:54;;;;;;;0.50;0.10;;;6.50;1.00;;;;;;5031923;28;20433;-67
2021/12/18 07:41:22;;;;;;;0.50;0.10;;;6.50;1.00;;;;;;5032037;28;20846;-66
2021/12/18 07:43:52;;;;;;;0.50;0.10;;;6.60;1.00;;;;;;5032250;28;20454;-68
2021/12/18 07:46:20;;;;;;;0.50;0.10;;;6.60;1.00;;;;;;5035704;28;20445;-67
2021/12/18 07:48:48;;;;;;;4.30;4.10;;;6.60;1.00;;;;;;5035514;28;20467;-67
2021/12/18 07:51:16;;;;;;;0.50;0.10;;;6.50;1.00;;;;;;5035691;28;20983;-67
2021/12/18 07:53:44;;;;;;;0.50;0.10;;;6.60;1.00;;;;;;5035505;28;20450;-66
2021/12/18 07:56:12;;;;;;;0.50;0.10;;;6.60;1.00;;;;;;5035246;28;20464;-67
2021/12/18 07:58:40;;;;;;;0.50;0.10;;;6.60;1.00;;;;;;5035411;28;20447;-67
2021/12/18 08:01:09;;;;;;;0.50;0.10;;;;;;;;;;5035444;28;20839;-67
2021/12/18 08:03:37;;;;;;;0.50;0.10;;;6.60;1.00;;;;;;5035058;28;20817;-66
2021/12/18 08:06:06;;;;;;;0.50;0.10;;;6.50;1.00;;;;;;5034855;28;20446;-68
2021/12/18 08:08:34;;;;;;;0.50;0.10;;;6.50;1.00;;;;;;5035336;28;20937;-68
2021/12/18 08:11:02;;;;;;;0.50;0.10;;;6.50;1.00;;;;;;5035055;28;20489;-67
2021/12/18 08:13:29;;;;;;;0.50;0.10;;;6.50;1.00;;;;;;5035504;28;20445;-67
2021/12/18 08:15:57;;;;;;;0.50;0.17;;;6.40;1.00;;;;;;5035364;28;20442;-67
2021/12/18 08:18:26;;;;;;;0.50;0.10;;;6.40;1.00;;;;;;5037290;28;20540;-66
2021/12/18 08:20:54;;;;;;;0.50;0.10;;;8.10;1.00;;;;;;5033743;28;20604;-65
2021/12/18 08:23:22;;;;;;;0.50;0.10;;;6.40;1.00;;;;;;5034295;28;20445;-68
2021/12/18 08:25:50;;;;;;;0.50;0.10;;;6.40;1.00;;;;;;5034479;28;20444;-67
2021/12/18 08:28:18;;;;;;;0.50;0.10;;;6.40;1.00;;;;;;5034686;28;20439;-66
2021/12/18 08:30:46;;;;;;;0.50;0.10;;;6.40;1.00;;;;;;5034296;28;20469;-68
2021/12/18 08:33:14;;;;;;;0.50;0.10;;;6.40;1.00;;;;;;5034535;28;20449;-68
2021/12/18 08:35:43;;;;;;;0.50;0.10;;;6.40;1.00;;;;;;5034181;28;20448;-67
2021/12/18 08:38:11;;;;;;;0.50;0.10;;;6.40;1.00;;;;;;5033670;28;20446;-68
2021/12/18 08:40:41;;;;;;;0.50;0.10;;;6.40;1.00;;;;;;5031917;28;20528;-66
2021/12/18 08:43:10;;;;;;;0.50;0.10;;;6.40;1.00;;;;;;5035834;28;20442;-67
2021/12/18 08:45:38;;;;;;;0.50;0.10;;;6.50;1.00;;;;;;5034950;28;20450;-70
2021/12/18 08:48:06;;;;;;;0.50;0.10;;;6.50;1.00;;;;;;5033779;28;20545;-69
2021/12/18 08:50:34;;;;;;;0.50;0.10;;;6.50;1.00;;;;;;5033888;28;20481;-68
2021/12/18 08:53:03;;;;;;;0.50;0.10;;;6.50;1.00;;;;;;5036109;28;20438;-68
2021/12/18 08:55:31;;;;;;;0.50;0.10;;;6.50;1.00;;;;;;5036409;28;21001;-66
2021/12/18 08:57:59;;;;;;;0.60;0.50;;;6.50;1.00;;;;;;5035158;28;20446;-69
2021/12/18 09:00:30;;;;;;;0.60;0.40;;;6.40;1.00;;;;;;5033512;28;20461;-68
2021/12/18 09:02:59;;;;;;;0.50;0.10;;;6.40;1.00;;;;;;5032688;28;20592;-68
2021/12/18 09:05:29;;;;;;;0.50;0.10;;;6.40;1.00;;;;;;5033504;28;20856;-67
2021/12/18 09:07:57;;;;;;;0.50;0.10;;;;;;;;;;5030525;28;20465;-67
2021/12/18 09:10:27;;;;;;;0.50;0.10;;;6.20;1.00;;;;;;5033988;28;20447;-66
2021/12/18 09:12:55;;;;;;;0.50;0.10;;;6.20;1.00;;;;;;5031196;28;20854;-68
2021/12/18 09:15:24;;;;;;;0.50;0.10;;;6.10;1.00;;;;;;5034497;28;20446;-68
2021/12/18 09:17:52;;;;;;;0.50;0.10;;;6.10;1.00;;;;;;5034185;28;20458;-67
2021/12/18 09:20:20;;;;;;;0.50;0.10;;;6.20;1.00;;;;;;5034006;28;20485;-67
2021/12/18 09:22:48;;;;;;;0.50;0.10;;;6.30;1.00;;;;;;5034177;28;20472;-68
2021/12/18 09:25:16;;;;;;;0.50;0.10;;;6.30;1.00;;;;;;5036783;28;20456;-68
2021/12/18 09:27:45;;;;;;;0.50;0.10;;;6.30;1.00;;;;;;5037622;28;20456;-67
2021/12/18 09:30:15;;;;;;;0.50;0.10;;;6.30;1.00;;;;;;5038745;28;20477;-67
2021/12/18 09:32:44;;;;;;;0.50;0.10;;;6.40;1.00;;;;;;5056408;23;20524;-70
2021/12/18 09:35:12;;;;;;;0.50;0.10;;;6.50;1.00;;;;;;5031745;28;20504;-70
2021/12/18 09:37:40;;;;;;;0.50;0.10;;;6.50;1.00;;;;;;5023131;28;20489;-69
2021/12/18 09:40:12;;;;;;;0.50;0.10;;;6.60;1.00;;;;;;5024891;28;20450;-69
2021/12/18 09:42:40;;;;;;;0.50;0.10;;;6.60;1.00;;;;;;5034116;28;20458;-69
2021/12/18 09:45:10;;;;;;;0.50;0.10;;;6.60;1.00;;;;;;5034000;28;20474;-70
2021/12/18 09:47:39;;;;;;;0.50;0.10;;;6.70;1.00;;;;;;5033692;28;20441;-69
2021/12/18 09:50:08;;;;;;;0.50;0.10;;;6.70;1.00;;;;;;5034293;28;20428;-69
2021/12/18 09:52:36;;;;;;;0.50;0.10;;;6.70;1.00;;;;;;5033956;28;20481;-70
2021/12/18 09:55:06;;;;;;;0.50;0.10;;;6.70;1.00;;;;;;5035303;28;20464;-70
2021/12/18 09:57:34;;;;;;;0.50;0.10;;;6.70;1.00;;;;;;5036540;28;20442;-70
2021/12/18 10:00:03;;;;;;;0.50;0.10;;;6.60;1.00;;;;;;5034751;28;20482;-70
2021/12/18 10:02:32;;;;;;;0.50;0.10;;;6.70;1.00;;;;;;5034870;28;20473;-69
2021/12/18 10:05:00;;;;;;;0.50;0.10;;;6.80;1.00;;;;;;5033579;28;20454;-70
2021/12/18 10:07:28;;;;;;;0.50;0.10;;;6.80;1.00;;;;;;5033857;28;20545;-71
2021/12/18 10:09:58;;;;;;;0.50;0.10;;;6.80;1.00;;;;;;5033825;28;20637;-70
2021/12/18 10:12:28;;;;;;;0.50;0.10;;;6.80;1.00;;;;;;5016459;28;20493;-69
2021/12/18 10:14:57;;;;;;;0.50;0.10;;;6.80;1.00;;;;;;5012630;28;20812;-72
2021/12/18 10:17:28;;;;;;;0.50;0.10;;;6.90;1.00;;;;;;5012915;28;20451;-73
2021/12/18 10:20:17;;;;;;;0.50;0.10;;;6.90;1.00;;;;;;5013029;28;20449;-72
2021/12/18 10:22:48;;;;;;;0.50;0.10;;;6.90;1.00;;;;;;5012815;28;20550;-72
2021/12/18 10:25:19;;;;;;;0.50;0.10;;;6.90;1.00;;;;;;5016078;28;20456;-74
2021/12/18 10:27:55;;;;;;;0.50;0.10;;;7.00;1.00;;;;;;5033374;28;20441;-72
2021/12/18 10:30:24;;;;;;;0.50;0.10;;;7.00;1.00;;;;;;5033969;28;20439;-73
2021/12/18 10:32:58;;;;;;;0.50;0.10;;;6.90;1.00;;;;;;5033380;28;20532;-71
2021/12/18 10:35:43;;;;;;;0.50;0.10;;;7.00;1.00;;;;;;5029289;28;20454;-71
2021/12/18 10:38:31;;;;;;;0.50;0.10;;;7.00;1.00;;;;;;5032509;28;20470;-72
2021/12/18 10:40:59;;;;;;;0.50;0.10;;;7.00;1.00;;;;;;5032281;28;20461;-72
2021/12/18 10:43:27;;;;;;;0.50;0.10;;;7.10;1.00;;;;;;5030854;28;20479;-72
2021/12/18 10:45:55;;;;;;;0.50;0.10;;;7.10;1.00;;;;;;5032451;28;20478;-73
2021/12/18 10:48:22;;;;;;;0.50;0.10;;;7.20;1.00;;;;;;5031857;28;20450;-72
2021/12/18 10:50:53;;;;;;;0.50;0.10;;;7.20;1.00;;;;;;5032357;28;20481;-71
2021/12/18 10:53:23;;;;;;;0.50;0.10;;;7.20;1.00;;;;;;5032782;28;20683;-73
2021/12/18 10:55:54;;;;;;;0.50;0.10;;;7.20;1.00;;;;;;5030908;28;20476;-72
2021/12/18 10:58:26;;;;;;;0.50;0.10;;;7.30;1.00;;;;;;5032095;28;20465;-71
2021/12/18 11:00:58;;;;;;;0.50;0.10;;;7.30;1.00;;;;;;5032332;28;20468;-71
2021/12/18 11:03:32;;;;;;;0.50;0.10;;;7.20;1.00;;;;;;5032252;28;20489;-73
2021/12/18 11:06:18;;;;;;;0.50;0.10;;;7.20;1.00;;;;;;5031967;28;20441;-71
2021/12/18 11:09:04;;;;;;;0.50;0.10;;;7.30;1.00;;;;;;5028190;28;20451;-72
2021/12/18 11:14:25;;;;;;;0.50;0.10;;;7.30;1.00;;;;;;5032289;28;20473;-72
2021/12/18 11:16:54;;;;;;;0.50;0.10;;;7.30;1.00;;;;;;5031623;28;20447;-73
2021/12/18 11:19:24;;;;;;;0.50;0.10;;;7.40;1.00;;;;;;5034296;28;20446;-72
2021/12/18 11:21:55;;;;;;;0.50;0.10;;;7.40;1.00;;;;;;5034168;28;20489;-71
2021/12/18 11:24:31;;;;;;;0.50;0.10;;;7.40;1.00;;;;;;5033204;28;20514;-72
2021/12/18 11:27:00;;;;;;;0.50;0.10;;;7.40;1.00;;;;;;5035583;28;20465;-73
2021/12/18 11:29:34;;;;;;;0.50;0.10;;;7.40;1.00;;;;;;5035366;28;20442;-72
2021/12/18 11:32:03;;;;;;;0.50;0.10;;;7.40;1.00;;;;;;5034876;28;20498;-73
2021/12/18 11:34:31;;;;;;;0.50;0.10;;;7.50;1.00;;;;;;5034848;28;20473;-72
2021/12/18 11:37:01;;;;;;;0.50;0.10;;;7.60;1.00;;;;;;5035345;28;20461;-72
2021/12/18 11:39:31;;;;;;;0.50;0.10;;;7.50;1.00;;;;;;5033314;28;20456;-73
2021/12/18 11:41:59;;;;;;;0.50;0.10;;;7.50;1.00;;;;;;5020988;28;20836;-72
2021/12/18 11:44:30;;;;;;;0.50;0.10;;;7.50;1.00;;;;;;5017830;28;20447;-72
2021/12/18 11:46:58;;;;;;;0.50;0.10;;;7.50;1.00;;;;;;5033927;28;20452;-72
2021/12/18 11:49:42;;;;;;;0.60;0.40;;;7.60;1.00;;;;;;5033032;28;20453;-73
2021/12/18 11:52:11;;;;;;;0.50;0.10;;;7.60;1.00;;;;;;5035707;28;20485;-72
2021/12/18 11:54:47;;;;;;;0.50;0.10;;;7.60;1.00;;;;;;5033187;28;20453;-71
2021/12/18 11:57:37;;;;;;;0.50;0.10;;;7.60;1.00;;;;;;5018556;28;20445;-72
2021/12/18 12:00:08;;;;;;;0.50;0.10;;;7.60;1.00;;;;;;5031044;28;20454;-72
2021/12/18 12:02:44;;;;;;;0.50;0.10;;;7.60;1.00;;;;;;5034371;28;20465;-72
2021/12/18 12:05:14;;;;;;;0.50;0.10;;;7.60;1.00;;;;;;5034530;28;20866;-73
2021/12/18 12:07:45;;;;;;;0.50;0.10;;;7.60;1.00;;;;;;5033886;28;20453;-73
2021/12/18 12:10:23;;;;;;;0.50;0.10;;;7.60;1.00;;;;;;5034413;28;20924;-73
2021/12/18 12:12:54;;;;;;;0.50;0.10;;;7.60;1.00;;;;;;5034469;28;20486;-72
2021/12/18 12:15:24;;;;;;;0.50;0.10;;;7.60;1.00;;;;;;5033969;28;20445;-72
2021/12/18 12:17:58;;;;;;;0.50;0.10;;;7.60;1.00;;;;;;5034785;28;20435;-72
2021/12/18 12:20:35;;;;;;;0.50;0.10;;;7.60;1.00;;;;;;5031064;28;20489;-74
2021/12/18 12:23:05;;;;;;;0.50;0.10;;;7.70;1.00;;;;;;5032923;28;20473;-72
2021/12/18 12:25:40;;;;;;;0.50;0.10;;;7.70;1.00;;;;;;5034654;28;20488;-71
2021/12/18 12:28:10;;;;;;;0.50;0.10;;;7.80;1.00;;;;;;5034736;28;20449;-73
2021/12/18 12:30:44;;;;;;;0.50;0.10;;;7.80;1.00;;;;;;5031280;28;20462;-72
2021/12/18 12:33:22;;;;;;;0.50;0.10;;;7.70;1.00;;;;;;5030159;28;20479;-71
2021/12/18 12:35:58;;;;;;;0.50;0.10;;;7.70;1.00;;;;;;5029989;28;20451;-73
2021/12/18 12:38:30;;;;;;;0.50;0.10;;;7.60;1.00;;;;;;5034320;28;20469;-73
2021/12/18 12:41:24;;;;;;;0.50;0.10;;;8.50;1.00;;;;;;5034652;28;20456;-73
2021/12/18 12:43:53;;;;;;;0.50;0.10;;;7.60;1.00;;;;;;5034329;28;20431;-74
2021/12/18 12:46:24;;;;;;;0.50;0.10;;;7.60;1.00;;;;;;5032149;28;20448;-73
2021/12/18 12:49:04;;;;;;;0.50;0.10;;;7.60;1.00;;;;;;5033206;28;20443;-74
2021/12/18 12:52:10;;;;;;;0.50;0.10;;;7.70;1.00;;;;;;5019061;28;20479;-75
2021/12/18 12:54:49;;;;;;;0.50;0.10;;;8.00;1.00;;;;;;5033339;28;21003;-73
2021/12/18 12:57:37;;;;;;;0.50;0.10;;;8.00;1.00;;;;;;5033788;28;20439;-74
2021/12/18 13:00:38;;;;;;;0.50;0.10;;;8.00;1.00;;;;;;5023300;28;20447;-75
2021/12/18 13:03:12;;;;;;;0.50;0.10;;;8.00;1.00;;;;;;5029455;28;20475;-74
2021/12/18 13:05:51;;;;;;;0.50;0.10;;;7.90;1.00;;;;;;5032887;28;20886;-73
2021/12/18 13:08:20;;;;;;;0.50;0.10;;;7.90;1.00;;;;;;5032071;28;20837;-76
2021/12/18 13:10:53;;;;;;;0.50;0.10;;;7.80;1.00;;;;;;5034431;28;20438;-72
2021/12/18 13:13:23;;;;;;;0.50;0.10;;;7.80;1.00;;;;;;5032770;28;20482;-74
2021/12/18 13:15:54;;;;;;;0.50;0.10;;;7.80;1.00;;;;;;5032802;28;20451;-73
2021/12/18 13:18:25;;;;;;;0.50;0.10;;;7.70;1.00;;;;;;5034472;28;20540;-74
2021/12/18 13:20:58;;;;;;;0.50;0.10;;;7.60;1.00;;;;;;5033763;28;20945;-74
2021/12/18 13:23:54;;;;;;;0.50;0.10;;;7.60;1.00;;;;;;5033366;28;20987;-74
2021/12/18 13:26:28;;;;;;;0.50;0.10;;;7.60;1.00;;;;;;5033034;28;20443;-73
2021/12/18 13:29:00;;;;;;;0.50;0.10;;;7.60;1.00;;;;;;5033142;28;20457;-73
2021/12/18 13:31:30;;;;;;;0.50;0.10;;;7.70;1.00;;;;;;5032755;28;20467;-72
2021/12/18 13:34:05;;;;;;;0.50;0.10;;;7.60;1.00;;;;;;5033552;28;20490;-72
2021/12/18 13:36:49;;;;;;;0.50;0.10;;;7.50;1.00;;;;;;5033388;28;20458;-73
2021/12/18 13:39:19;;;;;;;0.50;0.10;;;7.50;1.00;;;;;;5033433;28;20925;-73
2021/12/18 13:42:01;;;;;;;0.50;0.10;;;7.50;1.00;;;;;;5019603;28;20985;-73
2021/12/18 13:44:54;;;;;;;0.50;0.10;;;7.50;1.00;;;;;;5014419;28;21020;-73
2021/12/18 13:47:28;;;;;;;0.50;0.10;;;7.60;1.00;;;;;;4999410;28;20459;-73
2021/12/18 13:50:07;;;;;;;0.50;0.10;;;7.50;1.00;;;;;;5014383;28;20432;-73
2021/12/18 13:52:43;;;;;;;0.50;0.10;;;7.60;1.00;;;;;;5014922;28;20466;-73
2021/12/18 13:55:30;;;;;;;0.50;0.10;;;7.60;1.00;;;;;;5018476;28;20502;-73
2021/12/18 13:58:02;;;;;;;0.50;0.10;;;7.60;1.00;;;;;;5032867;28;21092;-74
2021/12/18 14:00:50;;;;;;;0.50;0.10;;;7.50;1.00;;;;;;5033136;28;20537;-74
2021/12/18 14:03:20;;;;;;;0.50;0.10;;;7.50;1.00;;;;;;5032653;28;20459;-73